Time;durP1;ratioP1;P1;durP2;ratioP2;P2;SDS_P1;SDS_P2;PMS_P1;PMS_P2;Temp;Humidity;BMP_temperature;BMP_pressure;BME280_temperature;BME280_humidity;BME280_pressure;Samples;Min_cycle;Max_cycle;Signal;HPM_P1;HPM_P2
2022/01/20 00:01:50;;;;;;;7.53;4.03;;;;;;;-2.06;66.50;98960.72;5094477;28;20280;-65
2022/01/20 00:04:22;;;;;;;8.93;4.65;;;;;;;-2.09;66.77;98951.22;5094389;28;20024;-67
2022/01/20 00:07:27;;;;;;;7.47;4.13;;;;;;;-2.14;67.02;98940.06;5094664;28;20097;-66
2022/01/20 00:23:13;;;;;;;6.88;3.92;;;;;;;-2.05;66.80;98930.97;5094067;28;20028;-66
2022/01/20 00:28:25;;;;;;;7.47;4.75;;;;;;;-2.03;67.14;98922.13;5093579;28;20491;-66
2022/01/20 00:30:58;;;;;;;7.93;4.22;;;;;;;-2.04;67.01;98930.91;5093991;28;20388;-65
2022/01/20 00:39:03;;;;;;;12.27;5.47;;;;;;;-1.97;66.71;98920.97;5052190;28;20033;-67
2022/01/20 00:41:28;;;;;;;9.90;4.60;;;;;;;-2.18;66.68;98897.38;5073607;28;20044;-67
2022/01/20 00:43:54;;;;;;;9.20;3.97;;;;;;;-2.05;67.25;98910.84;5092014;28;20052;-65
2022/01/20 00:46:19;;;;;;;8.52;4.93;;;;;;;-2.05;67.23;98912.59;5093818;28;20387;-67
2022/01/20 00:48:45;;;;;;;7.93;4.57;;;;;;;-2.07;67.12;98919.69;5094103;28;20032;-68
2022/01/20 00:51:12;;;;;;;7.60;4.45;;;;;;;-2.19;67.58;98890.44;5093486;28;20108;-67
2022/01/20 00:53:43;;;;;;;9.90;4.53;;;;;;;-2.27;67.26;98865.47;5093307;28;20036;-66
2022/01/20 00:56:12;;;;;;;8.90;4.45;;;;;;;-2.06;67.48;98897.78;5093886;28;20170;-66
2022/01/20 00:58:38;;;;;;;7.88;4.18;;;;;;;-2.06;67.00;98889.91;5093597;28;20028;-67
2022/01/20 01:01:04;;;;;;;8.00;4.38;;;;;;;-2.13;67.77;98893.72;5093570;28;20032;-69
2022/01/20 01:03:30;;;;;;;10.68;4.47;;;;;;;-2.13;67.98;98883.25;5093164;28;20050;-69
2022/01/20 01:06:48;;;;;;;8.35;4.15;;;;;;;-2.12;67.22;98884.94;5093556;28;20028;-69
2022/01/20 01:08:44;;;;;;;7.03;4.00;;;;;;;-2.04;67.10;98886.31;5087492;28;20048;-67
2022/01/20 01:11:10;;;;;;;6.75;4.03;;;;;;;-2.11;67.58;98871.75;5092977;28;20039;-68
2022/01/20 01:13:36;;;;;;;8.32;4.72;;;;;;;-2.25;67.81;98847.91;5093383;28;20028;-67
2022/01/20 01:16:03;;;;;;;7.68;4.05;;;;;;;-2.04;67.23;98878.44;5096397;28;20038;-70
2022/01/20 01:21:26;;;;;;;8.07;4.82;;;;;;;-2.05;67.16;98863.63;5092643;28;20032;-67
2022/01/20 01:23:51;;;;;;;8.75;4.35;;;;;;;-2.21;67.49;98849.47;5093308;28;20058;-67
2022/01/20 01:26:18;;;;;;;9.43;4.70;;;;;;;-2.09;67.15;98871.69;5092064;28;20028;-67
2022/01/20 01:28:45;;;;;;;9.70;4.43;;;;;;;-2.08;68.10;98873.38;5092840;28;20543;-68
2022/01/20 01:33:49;;;;;;;8.23;4.38;;;;;;;-2.04;67.40;98864.47;5092854;28;20059;-68
2022/01/20 01:36:18;;;;;;;8.43;5.50;;;;;;;-2.08;67.60;98855.88;5092047;28;20498;-67
2022/01/20 01:38:44;;;;;;;10.57;4.72;;;;;;;-2.06;67.62;98863.69;5092952;28;20055;-67
2022/01/20 01:41:14;;;;;;;6.85;4.53;;;;;;;-2.12;67.54;98870.03;5092475;28;20438;-67
2022/01/20 01:43:43;;;;;;;7.90;4.18;;;;;;;-2.10;67.89;98873.44;5092407;28;20028;-67
2022/01/20 01:46:11;;;;;;;7.90;5.07;;;;;;;-2.09;67.85;98875.16;5093260;28;20036;-70
2022/01/20 01:48:40;;;;;;;8.15;4.20;;;;;;;-2.10;67.79;98872.59;5092481;28;20067;-67
2022/01/20 01:51:05;;;;;;;12.43;5.00;;;;;;;-2.05;68.55;98865.38;5092421;28;20438;-66
2022/01/20 01:53:31;;;;;;;8.73;4.57;;;;;;;-2.06;68.37;98853.19;5092319;28;20105;-67
2022/01/20 01:55:56;;;;;;;9.90;4.50;;;;;;;-1.97;67.48;98860.63;5092293;28;20131;-67
2022/01/20 01:58:22;;;;;;;7.93;4.82;;;;;;;-2.01;68.03;98866.94;5092404;28;20092;-67
2022/01/20 02:00:48;;;;;;;7.90;4.70;;;;;;;-1.97;68.23;98852.75;5091978;28;20032;-67
2022/01/20 02:03:14;;;;;;;7.80;4.22;;;;;;;-1.98;68.23;98855.47;5092065;28;20107;-65
2022/01/20 02:05:57;;;;;;;9.30;4.32;;;;;;;-2.00;67.73;98850.28;5092266;28;20032;-67
2022/01/20 02:19:11;;;;;;;7.68;4.40;;;;;;;-2.04;67.85;98827.75;5093505;28;20036;-67
2022/01/20 02:21:48;;;;;;;10.75;4.55;;;;;;;-1.99;68.29;98844.13;5092057;28;20386;-66
2022/01/20 02:24:14;;;;;;;9.88;4.43;;;;;;;-2.09;67.85;98816.59;5091748;28;20120;-67
2022/01/20 02:26:39;;;;;;;7.32;4.65;;;;;;;-2.04;68.52;98809.38;5092477;28;20123;-67
2022/01/20 02:29:05;;;;;;;9.38;4.47;;;;;;;-2.07;68.53;98815.59;5091581;28;20047;-66
2022/01/20 02:31:31;;;;;;;13.25;4.28;;;;;;;-2.01;68.11;98806.63;5091708;28;20504;-67
2022/01/20 02:33:58;;;;;;;8.48;4.68;;;;;;;-2.23;68.02;98764.78;5092149;28;20119;-66
2022/01/20 02:36:23;;;;;;;8.05;4.72;;;;;;;-2.23;68.82;98770.03;5091896;28;20100;-68
2022/01/20 02:39:00;;;;;;;9.00;4.90;;;;;;;-2.13;68.88;98783.59;5091142;28;20111;-66
2022/01/20 02:46:54;;;;;;;9.48;5.07;;;;;;;-2.03;68.46;98790.09;5089891;28;20037;-66
2022/01/20 02:49:20;;;;;;;9.93;4.70;;;;;;;-2.00;68.51;98783.88;5091240;28;20109;-67
2022/01/20 02:51:50;;;;;;;10.10;5.22;;;;;;;-1.96;68.63;98788.88;5091509;28;20028;-67
2022/01/20 02:54:16;;;;;;;7.28;4.68;;;;;;;-2.13;67.95;98745.06;5091855;28;20152;-70
2022/01/20 02:56:42;;;;;;;11.35;5.47;;;;;;;-1.97;68.44;98776.69;5091326;28;20036;-73
2022/01/20 02:59:08;;;;;;;9.18;4.78;;;;;;;-1.96;68.59;98781.00;5090336;28;20170;-67
2022/01/20 03:01:33;;;;;;;10.35;5.25;;;;;;;-1.93;68.60;98788.78;5091885;28;20035;-67
2022/01/20 03:04:00;;;;;;;10.52;4.88;;;;;;;-1.93;68.94;98773.03;5091585;28;20490;-66
2022/01/20 03:06:26;;;;;;;9.38;4.97;;;;;;;-1.88;68.43;98778.91;5090975;28;20039;-67
2022/01/20 03:08:51;;;;;;;10.20;5.32;;;;;;;-1.88;68.83;98775.41;5090954;28;20036;-66
2022/01/20 03:11:17;;;;;;;8.77;4.85;;;;;;;-1.85;68.60;98777.06;5091739;28;20471;-66
2022/01/20 03:13:43;;;;;;;9.00;5.00;;;;;;;-1.90;68.81;98775.50;5091685;28;20088;-75
2022/01/20 03:16:08;;;;;;;9.18;5.28;;;;;;;-1.87;68.76;98774.50;5091178;28;20032;-67
2022/01/20 03:18:34;;;;;;;8.77;4.93;;;;;;;-1.88;69.11;98773.66;5091052;28;20115;-66
2022/01/20 03:20:59;;;;;;;10.73;5.10;;;;;;;-1.80;68.46;98775.94;5091534;28;20043;-66
2022/01/20 03:23:25;;;;;;;10.63;5.05;;;;;;;-1.93;68.21;98752.03;5091441;28;20090;-66
2022/01/20 03:25:50;;;;;;;9.63;4.85;;;;;;;-1.86;68.54;98755.22;5089584;28;20464;-67
2022/01/20 03:28:16;;;;;;;8.93;4.72;;;;;;;-1.82;68.65;98780.38;5090830;28;20058;-67
2022/01/20 03:30:42;;;;;;;7.93;4.50;;;;;;;-1.81;68.93;98776.00;5091817;28;20086;-67
2022/01/20 03:33:07;;;;;;;11.80;5.18;;;;;;;-1.97;68.75;98742.59;5091347;28;20053;-67
2022/01/20 03:35:33;;;;;;;9.30;5.32;;;;;;;-1.76;69.02;98768.75;5090581;28;20116;-67
2022/01/20 03:37:59;;;;;;;8.73;4.70;;;;;;;-1.75;68.98;98765.19;5089613;28;20036;-67
2022/01/20 03:40:24;;;;;;;9.85;4.47;;;;;;;-1.74;69.13;98751.16;5090109;28;20028;-66
2022/01/20 03:42:50;;;;;;;10.07;4.60;;;;;;;-1.76;68.97;98759.13;5090927;28;20052;-67
2022/01/20 03:45:15;;;;;;;9.07;4.60;;;;;;;-1.75;68.51;98763.44;5090953;28;20480;-67
2022/01/20 03:47:42;;;;;;;12.15;5.57;;;;;;;-1.82;68.35;98741.00;5089857;28;20165;-67
2022/01/20 03:50:59;;;;;;;10.90;5.70;;;;;;;-1.77;69.08;98751.31;5089413;28;20480;-67
2022/01/20 03:52:53;;;;;;;11.30;5.68;;;;;;;-1.80;69.05;98739.19;5090929;28;20035;-66
2022/01/20 03:55:19;;;;;;;9.77;5.07;;;;;;;-1.82;69.05;98746.25;5090608;28;20392;-67
2022/01/20 03:57:44;;;;;;;9.48;5.00;;;;;;;-1.78;68.92;98746.97;5089555;28;20031;-65
2022/01/20 04:00:10;;;;;;;10.55;5.50;;;;;;;-1.90;69.02;98736.16;5089427;28;20345;-67
2022/01/20 04:02:36;;;;;;;10.75;5.30;;;;;;;-1.79;69.53;98748.78;5090485;28;20024;-68
2022/01/20 04:05:02;;;;;;;10.65;5.60;;;;;;;-1.76;69.28;98755.63;5092383;28;20513;-67
2022/01/20 04:07:28;;;;;;;10.85;5.40;;;;;;;-1.98;69.06;98700.72;5093236;28;20028;-67
2022/01/20 04:09:54;;;;;;;11.15;5.80;;;;;;;-1.74;69.36;98751.16;5092921;28;20475;-67
2022/01/20 04:12:19;;;;;;;13.35;5.75;;;;;;;-1.79;68.62;98725.16;5094424;28;20456;-67
2022/01/20 04:14:48;;;;;;;12.43;5.57;;;;;;;-1.74;69.41;98727.53;5094672;28;20039;-68
2022/01/20 04:17:18;;;;;;;12.73;6.13;;;;;;;-1.74;69.29;98728.41;5093900;28;20039;-68
2022/01/20 04:19:44;;;;;;;9.98;5.47;;;;;;;-1.74;69.31;98714.41;5094413;28;20028;-69
2022/01/20 04:22:10;;;;;;;9.60;4.97;;;;;;;-1.70;68.79;98718.59;5094450;28;20028;-68
2022/01/20 04:24:37;;;;;;;10.07;4.72;;;;;;;-1.74;68.33;98710.03;5093614;28;20051;-67
2022/01/20 04:27:04;;;;;;;12.55;5.57;;;;;;;-1.85;68.42;98698.34;5093823;28;20153;-66
2022/01/20 04:29:29;;;;;;;11.80;5.07;;;;;;;-1.76;69.35;98724.13;5094437;28;20024;-68
2022/01/20 04:31:55;;;;;;;14.80;5.63;;;;;;;-1.96;68.65;98677.88;5093166;28;20024;-67
2022/01/20 04:34:21;;;;;;;11.05;5.47;;;;;;;-1.78;69.26;98700.59;5093604;28;20024;-65
2022/01/20 04:36:50;;;;;;;13.65;5.50;;;;;;;-1.80;69.64;98701.59;5094181;28;20028;-67
2022/01/20 04:39:20;;;;;;;8.48;5.18;;;;;;;-1.78;69.92;98710.25;5094209;28;20162;-65
2022/01/20 04:41:46;;;;;;;9.75;5.15;;;;;;;-1.75;68.89;98705.72;5093742;28;20373;-66
2022/01/20 04:44:19;;;;;;;15.77;5.45;;;;;;;-1.78;69.41;98699.75;5093447;28;20048;-67
2022/01/20 04:47:02;;;;;;;12.05;5.38;;;;;;;-1.79;69.25;98693.66;5094235;28;20050;-67
2022/01/20 04:57:39;;;;;;;9.90;5.07;;;;;;;-1.62;68.91;98698.09;5092629;28;20118;-66
2022/01/20 05:00:06;;;;;;;12.48;5.55;;;;;;;-1.75;68.57;98674.22;5093648;28;20586;-67
2022/01/20 05:02:31;;;;;;;10.02;5.10;;;;;;;-1.73;68.77;98688.13;5093113;28;20392;-70
2022/01/20 05:04:57;;;;;;;9.48;5.43;;;;;;;-1.60;69.01;98698.00;5093395;28;20036;-65
2022/01/20 05:07:26;;;;;;;12.52;5.07;;;;;;;-1.59;68.81;98695.31;5093756;28;20031;-66
2022/01/20 05:09:54;;;;;;;12.13;5.80;;;;;;;-1.66;68.74;98693.06;5093653;28;20020;-68
2022/01/20 05:12:25;;;;;;;10.70;5.05;;;;;;;-1.64;68.47;98699.94;5091947;28;20024;-68
2022/01/20 05:14:51;;;;;;;10.15;4.88;;;;;;;-1.68;68.25;98694.91;5091817;28;20032;-68
2022/01/20 05:17:16;;;;;;;12.45;5.68;;;;;;;-1.77;69.02;98694.44;5092303;28;20265;-67
2022/01/20 05:19:42;;;;;;;10.68;5.50;;;;;;;-1.81;69.41;98687.66;5093007;28;20028;-69
2022/01/20 05:22:07;;;;;;;10.23;5.43;;;;;;;-1.82;69.77;98692.94;5092603;28;20510;-67
2022/01/20 05:24:33;;;;;;;11.50;5.78;;;;;;;-1.76;69.33;98687.41;5092800;28;20028;-67
2022/01/20 05:26:58;;;;;;;11.65;5.55;;;;;;;-1.74;69.38;98682.94;5093346;28;20581;-68
2022/01/20 05:29:25;;;;;;;11.68;6.28;;;;;;;-1.76;69.07;98677.78;5092868;28;20110;-66
2022/01/20 05:31:51;;;;;;;10.23;4.72;;;;;;;-1.70;68.93;98671.34;5092621;28;20123;-66
2022/01/20 05:34:17;;;;;;;13.38;5.45;;;;;;;-1.73;68.48;98674.13;5092281;28;20462;-66
2022/01/20 05:36:46;;;;;;;9.60;5.43;;;;;;;-1.73;68.75;98692.50;5090993;28;20042;-68
2022/01/20 05:39:11;;;;;;;10.32;5.53;;;;;;;-1.74;68.79;98677.69;5091750;28;20042;-68
2022/01/20 05:41:37;;;;;;;11.10;4.85;;;;;;;-1.75;69.30;98678.59;5090582;28;20028;-66
2022/01/20 05:44:03;;;;;;;11.93;5.40;;;;;;;-1.77;69.10;98675.19;5091658;28;20452;-66
2022/01/20 05:46:36;;;;;;;12.80;5.60;;;;;;;-1.73;68.62;98666.25;5091532;28;20044;-67
2022/01/20 05:49:10;;;;;;;12.40;6.60;;;;;;;-1.73;68.59;98667.13;5091913;28;20051;-65
2022/01/20 05:51:37;;;;;;;9.93;5.28;;;;;;;-1.74;68.62;98670.66;5091797;28;20059;-67
2022/01/20 05:54:03;;;;;;;13.05;6.18;;;;;;;-1.75;69.46;98675.97;5091640;28;20032;-66
2022/01/20 05:56:28;;;;;;;10.50;5.00;;;;;;;-1.71;68.86;98672.28;5091552;28;20031;-66
2022/01/20 05:58:54;;;;;;;13.30;5.63;;;;;;;-1.75;69.14;98678.59;5091157;28;20028;-66
2022/01/20 06:01:20;;;;;;;11.80;5.90;;;;;;;-1.71;69.04;98664.41;5092187;28;20028;-66
2022/01/20 06:03:45;;;;;;;13.23;5.63;;;;;;;-1.74;69.01;98665.41;5090997;28;20066;-68
2022/01/20 06:06:13;;;;;;;10.00;5.07;;;;;;;-1.67;69.39;98662.50;5091091;28;20085;-66
2022/01/20 06:08:41;;;;;;;10.23;5.20;;;;;;;-1.64;68.54;98660.56;5092047;28;20108;-67
2022/01/20 06:11:08;;;;;;;13.70;6.15;;;;;;;-1.61;69.12;98665.66;5090558;28;20025;-66
2022/01/20 06:13:33;;;;;;;11.75;5.63;;;;;;;-1.59;68.83;98655.94;5091662;28;20020;-67
2022/01/20 06:16:00;;;;;;;11.65;5.57;;;;;;;-1.55;68.79;98654.03;5091719;28;20039;-67
2022/01/20 06:18:26;;;;;;;12.77;5.38;;;;;;;-1.73;68.93;98614.63;5090749;28;20024;-66
2022/01/20 06:20:52;;;;;;;12.75;6.13;;;;;;;-1.57;69.03;98645.34;5092025;28;20036;-66
2022/01/20 06:23:18;;;;;;;13.10;5.57;;;;;;;-1.58;68.72;98633.16;5091939;28;20034;-71
2022/01/20 06:25:44;;;;;;;9.73;5.53;;;;;;;-1.59;68.40;98636.69;5090924;28;20059;-67
2022/01/20 06:28:11;;;;;;;14.82;5.97;;;;;;;-1.59;68.73;98645.44;5091169;28;20441;-66
2022/01/20 06:30:37;;;;;;;10.48;5.43;;;;;;;-1.57;68.20;98649.75;5091847;28;20020;-67
2022/01/20 06:33:03;;;;;;;15.15;6.13;;;;;;;-1.60;68.47;98640.25;5092321;28;20031;-67
2022/01/20 06:35:30;;;;;;;10.23;5.35;;;;;;;-1.61;68.54;98634.16;5091631;28;20051;-68
2022/01/20 06:37:56;;;;;;;17.25;6.80;;;;;;;-2.12;69.31;98555.31;5091368;28;20103;-68
2022/01/20 06:40:22;;;;;;;14.63;6.13;;;;;;;-1.59;68.95;98627.06;5091776;28;20111;-67
2022/01/20 06:42:47;;;;;;;11.40;5.85;;;;;;;-1.59;68.96;98631.44;5092020;28;20537;-66
2022/01/20 06:45:15;;;;;;;16.83;6.70;;;;;;;-1.49;68.90;98648.47;5090272;28;20098;-66
2022/01/20 06:47:42;;;;;;;15.43;6.68;;;;;;;-1.47;68.54;98649.22;5090893;28;20054;-68
2022/01/20 06:50:10;;;;;;;15.07;7.22;;;;;;;-1.45;68.56;98643.88;5091640;28;20036;-68
2022/01/20 06:52:36;;;;;;;16.02;7.07;;;;;;;-1.48;68.73;98623.91;5091666;28;20032;-68
2022/01/20 06:55:09;;;;;;;12.73;6.40;;;;;;;-1.43;68.74;98630.69;5091617;28;20115;-68
2022/01/20 06:57:36;;;;;;;12.63;6.15;;;;;;;-1.42;68.56;98630.63;5089835;28;20043;-68
2022/01/20 07:00:06;;;;;;;12.10;5.80;;;;;;;-1.47;68.29;98635.25;5090835;28;20081;-69
2022/01/20 07:02:32;;;;;;;16.02;6.25;;;;;;;-1.45;68.49;98643.88;5087320;28;20392;-66
2022/01/20 07:04:57;;;;;;;13.35;6.35;;;;;;;-1.38;68.47;98655.78;5091198;28;20032;-67
2022/01/20 07:07:23;;;;;;;16.17;6.68;;;;;;;-1.37;67.82;98654.88;5080631;28;20076;-67
2022/01/20 07:09:48;;;;;;;14.02;6.82;;;;;;;-1.54;68.60;98629.47;5070631;28;20151;-66
2022/01/20 07:12:14;;;;;;;13.55;7.25;;;;;;;-1.38;68.51;98642.66;5071401;28;20082;-66
2022/01/20 07:14:39;;;;;;;16.05;6.97;;;;;;;-1.35;68.49;98639.88;5071199;28;20535;-68
2022/01/20 07:17:06;;;;;;;14.27;7.03;;;;;;;-1.27;68.58;98641.25;5069290;28;20029;-67
2022/01/20 07:19:32;;;;;;;18.45;7.35;;;;;;;-1.28;68.54;98637.81;5081605;28;20036;-66
2022/01/20 07:21:58;;;;;;;15.30;7.25;;;;;;;-1.31;68.36;98628.28;5091568;28;20035;-72
2022/01/20 07:24:24;;;;;;;13.55;6.78;;;;;;;-1.22;68.20;98628.72;5090005;28;20359;-67
2022/01/20 07:26:50;;;;;;;17.02;7.90;;;;;;;-1.18;68.11;98631.13;5090461;28;20032;-68
2022/01/20 07:29:15;;;;;;;18.17;7.10;;;;;;;-1.22;68.19;98621.72;5090454;28;20421;-66
2022/01/20 07:31:41;;;;;;;14.38;7.03;;;;;;;-1.20;68.15;98637.41;5091313;28;20039;-67
2022/01/20 07:34:07;;;;;;;17.80;7.30;;;;;;;-1.19;68.12;98616.31;5090513;28;20028;-67
2022/01/20 07:36:32;;;;;;;15.02;6.97;;;;;;;-1.15;67.57;98611.75;5089444;28;20027;-68
2022/01/20 07:38:58;;;;;;;15.73;6.72;;;;;;;-1.17;67.91;98613.63;5092639;28;20047;-77
2022/01/20 07:41:23;;;;;;;16.95;7.95;;;;;;;-1.22;67.67;98605.97;5094650;28;20035;-67
2022/01/20 07:43:49;;;;;;;15.77;7.40;;;;;;;-1.18;67.62;98623.25;5094517;28;20085;-66
2022/01/20 07:46:14;;;;;;;15.23;6.75;;;;;;;-1.13;67.72;98611.66;5093153;28;20043;-67
2022/01/20 07:48:40;;;;;;;15.23;6.80;;;;;;;-1.19;68.18;98608.44;5094898;28;20076;-68
2022/01/20 07:51:06;;;;;;;14.88;7.22;;;;;;;-1.18;68.00;98611.91;5094605;28;20024;-68
2022/01/20 07:53:36;;;;;;;16.33;7.60;;;;;;;-1.27;67.83;98580.84;5094700;28;20111;-67
2022/01/20 07:56:02;;;;;;;16.92;8.02;;;;;;;-1.25;67.61;98565.88;5083626;28;20033;-69
2022/01/20 07:58:27;;;;;;;16.98;8.13;;;;;;;-1.03;68.27;98605.00;5073675;28;20070;-69
2022/01/20 08:00:53;;;;;;;17.77;7.93;;;;;;;-1.05;68.01;98605.06;5074199;28;20119;-70
2022/01/20 08:03:18;;;;;;;17.00;7.32;;;;;;;-0.98;67.49;98610.00;5074712;28;20460;-69
2022/01/20 08:05:44;;;;;;;17.20;7.38;;;;;;;-0.99;67.70;98613.56;5074279;28;20073;-66
2022/01/20 08:08:09;;;;;;;16.52;7.43;;;;;;;-1.03;68.08;98612.88;5073935;28;20033;-70
2022/01/20 08:10:35;;;;;;;15.85;7.53;;;;;;;-1.07;67.55;98609.56;5074181;28;20020;-71
2022/01/20 08:13:03;;;;;;;20.40;9.00;;;;;;;-1.02;67.61;98618.03;5074702;28;20029;-69
2022/01/20 08:15:28;;;;;;;17.27;8.20;;;;;;;-1.01;67.99;98621.53;5073923;28;20039;-66
2022/01/20 08:17:54;;;;;;;21.83;8.77;;;;;;;-1.03;68.17;98610.25;5072277;28;20028;-68
2022/01/20 08:20:19;;;;;;;21.67;9.20;;;;;;;-1.02;67.80;98610.16;5074194;28;20033;-67
2022/01/20 08:22:45;;;;;;;15.88;8.55;;;;;;;-1.18;68.31;98575.16;5071049;28;20025;-67
2022/01/20 08:25:17;;;;;;;18.77;9.25;;;;;;;-0.89;67.64;98604.28;5072482;28;20440;-67
2022/01/20 08:27:44;;;;;;;19.17;9.73;;;;;;;-0.88;68.11;98601.53;5072518;28;20039;-70
2022/01/20 08:30:12;;;;;;;22.58;7.70;;;;;;;-0.84;67.69;98606.63;5073914;28;20036;-72
2022/01/20 08:32:38;;;;;;;16.38;8.68;;;;;;;-0.84;67.32;98606.63;5073264;28;20355;-67
2022/01/20 08:35:06;;;;;;;17.80;8.18;;;;;;;-0.82;67.45;98607.44;5072059;28;20040;-68
2022/01/20 08:37:37;;;;;;;20.42;8.45;;;;;;;-0.94;67.76;98588.75;5073635;28;20063;-73
2022/01/20 08:40:05;;;;;;;17.77;8.77;;;;;;;-0.90;67.90;98592.91;5084661;28;20546;-65
2022/01/20 08:42:32;;;;;;;24.35;11.15;;;;;;;-0.88;67.23;98591.03;5072265;28;20047;-69
2022/01/20 08:44:57;;;;;;;17.95;8.40;;;;;;;-0.96;67.85;98571.38;5085181;28;20086;-66
2022/01/20 08:47:23;;;;;;;21.65;8.52;;;;;;;-0.92;67.74;98579.00;5094153;28;20488;-69
2022/01/20 08:49:50;;;;;;;19.80;8.63;;;;;;;-0.93;67.20;98569.41;5093013;28;20130;-69
2022/01/20 08:52:17;;;;;;;20.58;9.32;;;;;;;-0.98;68.23;98549.56;5091916;28;20088;-66
2022/01/20 08:54:47;;;;;;;19.10;8.32;;;;;;;-1.03;67.84;98548.03;5091487;28;20024;-70
2022/01/20 08:57:16;;;;;;;21.75;9.27;;;;;;;-1.02;68.05;98541.03;5079597;28;20115;-67
2022/01/20 08:59:42;;;;;;;21.60;8.55;;;;;;;-0.96;67.85;98550.38;5073456;28;20029;-72
2022/01/20 09:02:10;;;;;;;16.75;8.52;;;;;;;-0.97;67.76;98551.25;5072748;28;20059;-70
2022/01/20 09:04:35;;;;;;;16.65;7.93;;;;;;;-0.96;67.58;98534.59;5072794;28;20494;-72
2022/01/20 09:07:01;;;;;;;20.65;8.80;;;;;;;-1.02;67.38;98541.03;5055766;28;20127;-74
2022/01/20 09:09:27;;;;;;;15.75;7.90;;;;;;;-1.04;67.00;98532.38;5072989;28;20162;-67
2022/01/20 09:17:40;;;;;;;15.77;7.90;;;;;;;-0.98;67.70;98520.66;5048037;28;20041;-69
2022/01/20 09:20:06;;;;;;;18.15;8.82;;;;;;;-0.99;67.28;98525.09;5072784;28;20029;-68
2022/01/20 09:22:32;;;;;;;19.40;8.60;;;;;;;-0.93;67.64;98529.19;5071089;28;20078;-69
2022/01/20 09:24:57;;;;;;;19.15;8.48;;;;;;;-0.97;68.10;98522.38;5072674;28;20592;-66
2022/01/20 09:27:23;;;;;;;14.55;7.40;;;;;;;-1.01;67.49;98527.78;5073005;28;20063;-66
2022/01/20 09:29:48;;;;;;;18.63;8.43;;;;;;;-1.07;68.24;98528.13;5071975;28;20036;-65
2022/01/20 09:32:16;;;;;;;17.85;7.78;;;;;;;-1.08;68.03;98509.84;5072220;28;20056;-66
2022/01/20 09:34:42;;;;;;;19.48;8.68;;;;;;;-1.06;68.13;98514.06;5071138;28;20486;-67
2022/01/20 09:37:08;;;;;;;14.55;6.95;;;;;;;-1.16;67.79;98476.94;5071929;28;20114;-66
2022/01/20 09:39:37;;;;;;;18.13;9.38;;;;;;;-0.97;67.81;98504.84;5075799;28;20020;-65
2022/01/20 09:42:03;;;;;;;17.42;7.78;;;;;;;-1.02;67.58;98507.69;5091935;28;20036;-65
2022/01/20 09:44:29;;;;;;;15.77;8.10;;;;;;;-1.17;67.86;98475.25;5085566;28;20151;-65
2022/01/20 09:46:54;;;;;;;23.02;9.27;;;;;;;-0.99;68.02;98504.06;5071816;28;20510;-64
2022/01/20 09:49:20;;;;;;;16.63;7.75;;;;;;;-0.91;67.92;98499.25;5071438;28;20371;-64
2022/01/20 09:51:46;;;;;;;16.73;8.40;;;;;;;-0.95;67.76;98489.00;5071830;28;20027;-64
2022/01/20 09:54:11;;;;;;;18.67;8.48;;;;;;;-0.83;67.66;98490.94;5071575;28;20074;-65
2022/01/20 09:56:38;;;;;;;22.02;8.60;;;;;;;-0.80;67.28;98485.50;5071526;28;20403;-65
2022/01/20 09:59:04;;;;;;;16.63;7.57;;;;;;;-0.79;67.85;98481.94;5072343;28;20124;-65
2022/01/20 10:01:41;;;;;;;14.73;7.43;;;;;;;-0.75;67.82;98477.38;5071037;28;20112;-65
2022/01/20 10:04:29;;;;;;;17.42;8.32;;;;;;;-0.70;67.91;98493.72;5071361;28;20036;-63
2022/01/20 10:07:20;;;;;;;19.15;7.70;;;;;;;-0.60;67.55;98499.31;5072670;28;20039;-65
2022/01/20 10:09:49;;;;;;;15.15;7.65;;;;;;;-0.67;66.92;98490.09;5081824;28;20132;-65
2022/01/20 10:12:17;;;;;;;14.20;7.50;;;;;;;-0.78;67.03;98474.94;5088462;28;20074;-64
2022/01/20 10:14:49;;;;;;;16.83;7.78;;;;;;;-0.82;67.41;98490.00;5090801;28;20036;-64
2022/01/20 10:17:20;;;;;;;16.83;8.50;;;;;;;-0.83;68.10;98477.81;5091954;28;20115;-65
2022/01/20 10:19:50;;;;;;;14.93;7.40;;;;;;;-0.86;67.12;98483.22;5091417;28;20352;-63
2022/01/20 10:22:17;;;;;;;16.52;8.35;;;;;;;-0.96;68.02;98474.16;5091680;28;20020;-65
2022/01/20 10:25:08;;;;;;;14.00;7.45;;;;;;;-0.89;68.10;98475.53;5092033;28;20093;-64
2022/01/20 10:27:45;;;;;;;16.27;8.02;;;;;;;-0.87;67.96;98485.00;5087271;28;20028;-66
2022/01/20 10:30:11;;;;;;;16.52;8.60;;;;;;;-0.95;67.63;98474.06;5091188;28;20032;-65
2022/01/20 10:32:43;;;;;;;17.50;8.32;;;;;;;-0.88;67.90;98485.09;5090243;28;20028;-67
2022/01/20 10:35:11;;;;;;;14.90;7.50;;;;;;;-0.95;68.32;98483.75;5071682;28;20028;-65
2022/01/20 10:37:41;;;;;;;16.08;7.68;;;;;;;-0.92;67.95;98462.56;5071324;28;20032;-66
2022/01/20 10:40:10;;;;;;;13.20;6.90;;;;;;;-0.95;67.39;98458.31;5071219;28;20040;-64
2022/01/20 10:42:45;;;;;;;15.15;7.78;;;;;;;-0.95;68.05;98476.69;5070973;28;20036;-62
2022/01/20 10:45:22;;;;;;;15.45;6.57;;;;;;;-0.98;67.78;98473.38;5070894;28;20128;-63
2022/01/20 10:47:57;;;;;;;14.77;6.82;;;;;;;-0.99;68.21;98471.69;5070728;28;20048;-63
2022/01/20 10:50:28;;;;;;;17.20;7.20;;;;;;;-1.04;68.34;98464.09;5071872;28;20044;-62
2022/01/20 10:52:54;;;;;;;13.43;7.63;;;;;;;-1.04;67.81;98474.59;5072060;28;20043;-63
2022/01/20 10:55:26;;;;;;;16.15;7.65;;;;;;;-1.00;68.04;98470.84;5070777;28;20039;-60
2022/01/20 10:57:54;;;;;;;15.60;7.43;;;;;;;-1.05;68.05;98462.38;5070943;28;20074;-63
2022/01/20 11:00:22;;;;;;;13.50;7.13;;;;;;;-1.08;68.56;98468.63;5070705;28;20056;-60
2022/01/20 11:02:50;;;;;;;15.25;6.45;;;;;;;-1.03;68.07;98469.22;5071524;28;20029;-62
2022/01/20 11:05:16;;;;;;;11.68;6.78;;;;;;;-1.04;68.30;98467.53;5069840;28;20380;-60
2022/01/20 11:07:43;;;;;;;14.07;6.28;;;;;;;-1.04;67.96;98453.56;5070757;28;20028;-61
2022/01/20 11:10:10;;;;;;;14.27;6.57;;;;;;;-0.95;67.92;98467.97;5069468;28;20032;-62
2022/01/20 11:12:37;;;;;;;9.95;5.53;;;;;;;-1.00;68.19;98478.72;5071434;28;20055;-62
2022/01/20 11:15:07;;;;;;;14.82;7.05;;;;;;;-0.96;68.31;98461.03;5056297;28;20036;-64
2022/01/20 11:17:34;;;;;;;13.77;6.72;;;;;;;-1.02;68.05;98451.69;5074626;28;20033;-64
2022/01/20 11:20:12;;;;;;;15.15;7.20;;;;;;;-0.95;68.64;98462.72;5074252;28;20111;-64
2022/01/20 11:22:54;;;;;;;18.08;7.35;;;;;;;-0.92;68.77;98454.66;5075260;28;20477;-64
2022/01/20 11:25:22;;;;;;;14.23;7.22;;;;;;;-0.95;68.32;98453.06;5074403;28;20032;-65
2022/01/20 11:27:51;;;;;;;12.98;7.05;;;;;;;-0.94;68.66;98446.88;5073076;28;20032;-63
2022/01/20 11:30:26;;;;;;;12.93;6.55;;;;;;;-0.78;68.36;98460.00;5073946;28;20032;-62
2022/01/20 11:33:06;;;;;;;14.35;6.78;;;;;;;-0.70;67.89;98456.09;5073992;28;20082;-63
2022/01/20 11:35:37;;;;;;;17.13;7.13;;;;;;;-0.70;68.03;98450.84;5074431;28;20064;-63
2022/01/20 11:38:03;;;;;;;10.05;6.18;;;;;;;-0.71;67.54;98442.09;5074007;28;20039;-63
2022/01/20 11:40:29;;;;;;;11.80;6.18;;;;;;;-0.80;67.44;98440.00;5074464;28;20028;-63
2022/01/20 11:43:05;;;;;;;14.93;6.78;;;;;;;-0.81;68.04;98443.56;5074118;28;20487;-65
2022/01/20 11:45:39;;;;;;;14.38;6.32;;;;;;;-0.78;67.70;98446.84;5074111;28;20377;-64
2022/01/20 11:48:15;;;;;;;12.02;6.68;;;;;;;-0.81;68.09;98444.41;5074123;28;20093;-65
2022/01/20 11:50:43;;;;;;;11.38;5.97;;;;;;;-0.88;67.68;98453.56;5074212;28;20035;-64
2022/01/20 11:53:20;;;;;;;19.42;6.95;;;;;;;-0.87;68.14;98444.75;5074115;28;20044;-66
2022/01/20 11:55:50;;;;;;;11.63;6.70;;;;;;;-0.92;68.83;98455.50;5072588;28;20441;-65
2022/01/20 11:58:20;;;;;;;15.30;6.60;;;;;;;-0.92;68.56;98447.63;5073487;28;20035;-64
2022/01/20 12:01:01;;;;;;;12.40;6.72;;;;;;;-0.82;68.40;98447.97;5071852;28;20035;-63
2022/01/20 12:03:27;;;;;;;13.55;6.18;;;;;;;-0.90;68.54;98451.00;5074322;28;20570;-65
2022/01/20 12:06:00;;;;;;;18.10;7.50;;;;;;;-0.91;68.68;98436.19;5073631;28;20036;-64
2022/01/20 12:08:26;;;;;;;14.95;7.45;;;;;;;-0.91;68.40;98436.19;5073806;28;20484;-64
2022/01/20 12:11:07;;;;;;;13.98;7.43;;;;;;;-0.89;68.64;98446.63;5074406;28;20059;-64
2022/01/20 12:13:44;;;;;;;15.35;6.72;;;;;;;-0.92;68.45;98444.16;5071633;28;20032;-63
2022/01/20 12:16:10;;;;;;;15.45;6.25;;;;;;;-0.89;68.40;98447.44;5073759;28;20068;-64
2022/01/20 12:18:35;;;;;;;13.95;7.35;;;;;;;-0.90;67.84;98442.28;5074025;28;20025;-65
2022/01/20 12:21:04;;;;;;;14.07;7.18;;;;;;;-0.89;68.21;98446.63;5074032;28;20032;-65
2022/01/20 12:23:30;;;;;;;16.67;6.80;;;;;;;-1.06;68.57;98440.50;5072301;28;20071;-65
2022/01/20 12:26:03;;;;;;;13.55;6.72;;;;;;;-1.04;68.92;98425.50;5072188;28;20064;-64
2022/01/20 12:28:29;;;;;;;15.35;7.00;;;;;;;-1.11;68.83;98425.94;5073785;28;20150;-65